Time;durP1;ratioP1;P1;durP2;ratioP2;P2;SDS_P1;SDS_P2;PMS_P1;PMS_P2;Temp;Humidity;BMP_temperature;BMP_pressure;BME280_temperature;BME280_humidity;BME280_pressure;Samples;Min_cycle;Max_cycle;Signal;HPM_P1;HPM_P2
2021/04/07 00:00:37;;;;;;;2.20;2.00;;;;;;;-4.03;89.76;92470.56;2090069;28;20021;-79
2021/04/07 00:01:37;;;;;;;3.28;1.90;;;;;;;-3.95;89.85;92471.47;2100994;27;20028;-78
2021/04/07 00:02:38;;;;;;;2.28;1.98;;;;;;;-3.97;89.60;92469.19;2113514;28;20418;-79
2021/04/07 00:03:38;;;;;;;2.78;1.75;;;;;;;-3.90;89.27;92468.63;2105028;28;20028;-78
2021/04/07 00:04:39;;;;;;;2.35;2.03;;;;;;;-3.87;88.84;92468.66;2096314;28;20052;-80
2021/04/07 00:05:42;;;;;;;1.95;1.80;;;;;;;-3.99;89.01;92481.09;2096415;28;20484;-79
2021/04/07 00:06:43;;;;;;;1.77;1.67;;;;;;;-4.00;89.81;92471.72;2105182;28;20024;-79
2021/04/07 00:07:44;;;;;;;2.17;1.80;;;;;;;-4.02;89.96;92482.53;2105921;28;20443;-78
2021/04/07 00:08:48;;;;;;;1.80;1.70;;;;;;;-4.05;90.87;92485.81;2106424;28;20051;-79
2021/04/07 00:09:49;;;;;;;3.53;1.75;;;;;;;-4.08;90.95;92494.31;2106861;28;20036;-79
2021/04/07 00:10:49;;;;;;;1.98;1.83;;;;;;;-4.15;91.99;92487.09;2106559;28;20533;-78
2021/04/07 00:11:50;;;;;;;2.40;2.20;;;;;;;-4.09;92.05;92490.94;2106668;28;20032;-79
2021/04/07 00:12:50;;;;;;;1.93;1.80;;;;;;;-4.11;92.63;92493.13;2106372;28;20419;-78
2021/04/07 00:13:51;;;;;;;1.90;1.80;;;;;;;-4.15;93.06;92497.53;2089732;28;20029;-79
2021/04/07 00:14:51;;;;;;;2.47;1.90;;;;;;;-4.15;92.85;92491.53;2089693;28;20021;-78
2021/04/07 00:15:52;;;;;;;3.47;2.10;;;;;;;-4.16;93.34;92505.69;2098050;28;20025;-78
2021/04/07 00:16:52;;;;;;;2.53;1.90;;;;;;;-4.14;94.23;92493.81;2089632;28;20021;-78
2021/04/07 00:17:54;;;;;;;6.97;1.90;;;;;;;-4.20;93.31;92492.56;2089608;28;20370;-79
2021/04/07 00:18:54;;;;;;;2.00;1.90;;;;;;;-4.19;93.70;92503.75;2097978;28;20021;-79
2021/04/07 00:19:54;;;;;;;3.07;1.87;;;;;;;-4.13;94.31;92510.22;2098212;28;20963;-78
2021/04/07 00:20:55;;;;;;;2.17;1.98;;;;;;;-4.20;93.61;92510.81;2093435;28;20086;-80
2021/04/07 00:21:55;;;;;;;1.80;1.60;;;;;;;-4.27;94.00;92499.47;2104751;28;20077;-78
2021/04/07 00:22:56;;;;;;;1.83;1.73;;;;;;;-4.39;94.72;92498.47;2096498;28;20017;-78
2021/04/07 00:23:56;;;;;;;2.07;1.87;;;;;;;-4.37;94.71;92498.13;2096648;28;20020;-78
2021/04/07 00:24:57;;;;;;;2.47;1.80;;;;;;;-4.32;95.18;92493.41;2104948;28;20583;-79
2021/04/07 00:25:57;;;;;;;2.60;1.87;;;;;;;-4.35;95.21;92504.50;2101391;28;20021;-79
2021/04/07 00:26:58;;;;;;;2.03;1.67;;;;;;;-4.30;95.03;92498.31;2110690;28;20026;-78
2021/04/07 00:28:05;;;;;;;2.77;1.77;;;;;;;-4.32;94.05;92501.22;2106395;28;20055;-79
2021/04/07 00:29:05;;;;;;;1.90;1.80;;;;;;;-4.31;93.76;92491.53;2107363;28;20031;-79
2021/04/07 00:30:07;;;;;;;2.17;1.80;;;;;;;-4.30;94.74;92503.53;2106473;28;20971;-79
2021/04/07 00:31:08;;;;;;;1.80;1.70;;;;;;;-4.28;93.33;92501.31;2114913;28;20077;-78
2021/04/07 00:32:08;;;;;;;2.07;1.67;;;;;;;-4.27;93.00;92504.69;2098218;28;20548;-79
2021/04/07 00:33:08;;;;;;;2.08;1.98;;;;;;;-4.26;94.09;92495.75;2106452;28;20484;-79
2021/04/07 00:34:09;;;;;;;1.83;1.65;;;;;;;-4.32;93.56;92508.31;2106474;28;20024;-79
2021/04/07 00:35:09;;;;;;;3.10;1.50;;;;;;;-4.29;93.34;92499.06;2098074;28;20531;-80
2021/04/07 00:36:10;;;;;;;2.75;1.48;;;;;;;-4.40;92.66;92501.41;2097999;28;20028;-79
2021/04/07 00:37:10;;;;;;;3.50;1.73;;;;;;;-4.39;93.30;92498.47;2098134;28;20078;-79
2021/04/07 00:38:11;;;;;;;2.25;1.70;;;;;;;-4.45;93.05;92514.69;2106264;28;20027;-79
2021/04/07 00:39:12;;;;;;;1.70;1.60;;;;;;;-4.41;93.13;92508.47;2106244;28;20071;-78
2021/04/07 00:40:13;;;;;;;3.30;2.10;;;;;;;-4.36;92.88;92510.81;2098073;28;20799;-78
2021/04/07 00:41:13;;;;;;;2.03;1.45;;;;;;;-4.37;93.34;92503.34;2098186;28;20032;-79
2021/04/07 00:42:14;;;;;;;1.80;1.67;;;;;;;-4.30;93.63;92503.53;2106295;28;20791;-78
2021/04/07 00:43:15;;;;;;;2.73;1.77;;;;;;;-4.34;93.06;92505.28;2106387;28;20084;-79
2021/04/07 00:44:15;;;;;;;3.30;1.60;;;;;;;-4.30;91.92;92511.34;2096876;28;20116;-79
2021/04/07 00:45:16;;;;;;;1.80;1.70;;;;;;;-4.33;91.33;92510.16;2097746;28;20020;-78
2021/04/07 00:46:16;;;;;;;1.65;1.42;;;;;;;-4.41;91.98;92508.47;2098029;28;20029;-78
2021/04/07 00:47:19;;;;;;;3.53;1.60;;;;;;;-4.38;92.17;92507.81;2098059;28;20055;-79
2021/04/07 00:48:20;;;;;;;2.42;1.65;;;;;;;-4.44;91.96;92503.91;2106701;28;20090;-79
2021/04/07 00:49:21;;;;;;;2.70;1.70;;;;;;;-4.44;90.95;92509.13;2106419;28;20440;-79
2021/04/07 00:50:24;;;;;;;1.75;1.65;;;;;;;-4.40;91.10;92509.97;2106408;28;20438;-80
2021/04/07 00:51:25;;;;;;;2.87;1.70;;;;;;;-4.35;91.07;92508.97;2106585;28;20528;-80
2021/04/07 00:52:25;;;;;;;2.93;1.70;;;;;;;-4.33;89.70;92506.78;2097914;28;20450;-79
2021/04/07 00:53:25;;;;;;;2.75;1.55;;;;;;;-4.45;88.85;92514.69;2089656;28;20060;-78
2021/04/07 00:54:26;;;;;;;2.00;1.42;;;;;;;-4.56;88.57;92509.22;2089519;28;20469;-80
2021/04/07 00:55:38;;;;;;;1.97;1.70;;;;;;;-4.54;88.74;92506.28;2089742;28;20108;-79
2021/04/07 00:56:38;;;;;;;1.53;1.43;;;;;;;-4.52;89.95;92509.31;2092742;28;20036;-80
2021/04/07 00:57:40;;;;;;;1.77;1.67;;;;;;;-4.58;90.26;92514.00;2097696;28;20439;-80
2021/04/07 00:58:41;;;;;;;2.30;1.57;;;;;;;-4.61;89.77;92512.84;2098162;28;20028;-80
2021/04/07 00:59:41;;;;;;;1.80;1.60;;;;;;;-4.63;90.05;92509.81;2097791;28;20442;-79
2021/04/07 01:00:42;;;;;;;1.60;1.50;;;;;;;-4.63;90.12;92512.41;2106378;28;20026;-80
2021/04/07 01:01:44;;;;;;;2.50;1.50;;;;;;;-4.55;90.50;92518.56;2106330;28;20032;-79
2021/04/07 01:02:45;;;;;;;2.70;2.00;;;;;;;-4.60;89.48;92518.81;2097696;28;20511;-80
2021/04/07 01:03:45;;;;;;;2.87;1.43;;;;;;;-4.73;89.18;92510.31;2097868;28;20411;-81
2021/04/07 01:04:47;;;;;;;1.77;1.67;;;;;;;-4.66;89.50;92520.13;2105936;28;20952;-80
2021/04/07 01:05:47;;;;;;;2.07;1.47;;;;;;;-4.63;89.34;92520.22;2098003;28;20519;-81
2021/04/07 01:06:48;;;;;;;2.07;1.23;;;;;;;-4.62;89.40;92516.53;2089560;28;20431;-80
2021/04/07 01:07:48;;;;;;;1.10;1.07;;;;;;;-4.60;90.38;92524.03;2089324;28;20490;-80
2021/04/07 01:08:49;;;;;;;1.30;1.20;;;;;;;-4.62;89.22;92523.59;2100510;28;20523;-79
2021/04/07 01:09:49;;;;;;;1.43;1.33;;;;;;;-4.69;89.02;92518.22;2106113;28;20048;-79
2021/04/07 01:10:50;;;;;;;1.27;1.10;;;;;;;-4.71;88.54;92518.53;2089692;28;20462;-80
2021/04/07 01:11:51;;;;;;;1.60;1.50;;;;;;;-4.69;90.03;92518.97;2097730;28;20077;-79
2021/04/07 01:12:52;;;;;;;1.73;1.50;;;;;;;-4.64;89.91;92515.38;2106126;28;20028;-80
2021/04/07 01:13:53;;;;;;;2.60;1.60;;;;;;;-4.68;89.97;92528.31;2106165;28;20544;-80
2021/04/07 01:14:53;;;;;;;2.70;1.80;;;;;;;-4.74;90.33;92518.44;2097679;28;20974;-80
2021/04/07 01:15:54;;;;;;;2.07;1.87;;;;;;;-4.71;89.83;92520.38;2106052;28;20177;-80
2021/04/07 01:16:54;;;;;;;2.07;1.70;;;;;;;-4.67;90.29;92516.78;2089567;28;20063;-81
2021/04/07 01:17:56;;;;;;;2.53;1.63;;;;;;;-4.68;91.54;92517.88;2081138;28;20025;-80
2021/04/07 01:18:57;;;;;;;3.37;1.77;;;;;;;-4.70;90.50;92517.44;2089598;28;20473;-80
2021/04/07 01:19:57;;;;;;;2.40;2.20;;;;;;;-4.63;91.00;92520.22;2089436;28;20451;-79
2021/04/07 01:20:59;;;;;;;2.10;1.90;;;;;;;-4.71;91.07;92528.22;2089435;28;20569;-79
2021/04/07 01:21:59;;;;;;;3.37;2.20;;;;;;;-4.72;89.96;92524.84;2094207;28;20103;-79
2021/04/07 01:23:02;;;;;;;3.10;2.37;;;;;;;-4.67;90.34;92518.63;2105595;28;20803;-80
2021/04/07 01:24:07;;;;;;;2.20;1.73;;;;;;;-4.62;89.40;92526.97;2114098;28;20022;-79
2021/04/07 01:25:10;;;;;;;2.30;2.10;;;;;;;-4.75;89.84;92514.31;2097348;28;20462;-79
2021/04/07 01:26:12;;;;;;;3.67;2.13;;;;;;;-4.74;89.92;92523.66;2096293;28;20423;-78
2021/04/07 01:27:12;;;;;;;2.93;2.30;;;;;;;-4.78;89.48;92523.59;2097721;28;20439;-80
2021/04/07 01:28:13;;;;;;;2.23;2.00;;;;;;;-4.75;90.08;92519.53;2089317;28;20458;-79
2021/04/07 01:29:15;;;;;;;2.20;2.00;;;;;;;-4.69;89.75;92518.22;2081051;28;20060;-78
2021/04/07 01:30:17;;;;;;;2.27;2.07;;;;;;;-4.76;90.66;92518.03;2097789;28;20837;-79
2021/04/07 01:31:17;;;;;;;4.30;2.53;;;;;;;-4.76;88.36;92524.00;2097549;28;20941;-79
2021/04/07 01:32:18;;;;;;;3.73;2.63;;;;;;;-4.76;90.31;92524.00;2089299;28;20436;-78
2021/04/07 01:33:23;;;;;;;2.67;2.40;;;;;;;-4.67;90.01;92523.84;2089372;28;20060;-79
2021/04/07 01:34:31;;;;;;;2.50;1.97;;;;;;;-4.77;90.26;92519.13;2082210;28;20032;-79
2021/04/07 01:35:31;;;;;;;2.50;2.30;;;;;;;-4.72;90.00;92527.47;2091233;28;20447;-78
2021/04/07 01:36:32;;;;;;;4.30;2.50;;;;;;;-4.72;90.17;92529.31;2097526;28;20433;-79
2021/04/07 01:37:34;;;;;;;3.23;2.27;;;;;;;-4.81;89.64;92532.81;2089351;28;20029;-80
2021/04/07 01:38:35;;;;;;;2.70;2.50;;;;;;;-4.81;90.40;92530.22;2098503;28;20070;-79
2021/04/07 01:39:35;;;;;;;3.13;2.70;;;;;;;-4.72;90.08;92527.47;2114367;28;20997;-78
2021/04/07 01:40:36;;;;;;;3.30;2.37;;;;;;;-4.64;89.93;92528.41;2114359;28;20053;-79
2021/04/07 01:41:37;;;;;;;3.77;2.60;;;;;;;-4.67;89.21;92531.66;2097604;28;20028;-79
2021/04/07 01:42:41;;;;;;;4.00;2.60;;;;;;;-4.72;89.59;92532.66;2097567;28;20986;-79
2021/04/07 01:43:42;;;;;;;2.83;2.40;;;;;;;-4.70;89.26;92529.72;2097729;28;20439;-79
2021/04/07 01:44:44;;;;;;;5.37;2.70;;;;;;;-4.71;88.85;92533.44;2097663;28;20849;-78
2021/04/07 01:45:48;;;;;;;3.37;2.90;;;;;;;-4.76;88.69;92534.44;2105637;28;20521;-79
2021/04/07 01:46:51;;;;;;;4.43;2.53;;;;;;;-4.74;88.75;92536.69;2090155;28;20439;-79
2021/04/07 01:47:55;;;;;;;3.03;2.20;;;;;;;-4.75;88.34;92538.53;2097941;28;20798;-79
2021/04/07 01:48:55;;;;;;;4.93;2.60;;;;;;;-4.66;89.63;92531.31;2097278;28;21013;-79
2021/04/07 01:49:58;;;;;;;3.93;2.33;;;;;;;-4.72;87.35;92531.91;2089333;28;20455;-78
2021/04/07 01:50:59;;;;;;;5.37;2.73;;;;;;;-4.76;88.99;92536.28;2097913;28;20477;-78
2021/04/07 01:52:00;;;;;;;3.10;2.70;;;;;;;-4.70;88.80;92533.09;2097515;28;20442;-79
2021/04/07 01:53:01;;;;;;;3.30;2.80;;;;;;;-4.74;88.17;92537.47;2105930;28;20106;-79
2021/04/07 01:54:05;;;;;;;3.07;2.60;;;;;;;-4.76;89.15;92526.59;2097303;28;20047;-79
2021/04/07 01:55:06;;;;;;;4.03;2.30;;;;;;;-4.65;89.29;92535.47;2097222;28;20447;-78
2021/04/07 01:56:09;;;;;;;2.50;2.30;;;;;;;-4.65;88.73;92532.88;2097229;28;20470;-79
2021/04/07 01:57:09;;;;;;;2.77;2.37;;;;;;;-4.60;88.17;92534.47;2106329;28;20024;-79
2021/04/07 01:58:11;;;;;;;2.97;2.67;;;;;;;-4.69;88.15;92537.22;2114306;28;20505;-79
2021/04/07 01:59:13;;;;;;;3.23;2.03;;;;;;;-4.72;88.48;92534.53;2113927;28;20027;-79
2021/04/07 02:00:15;;;;;;;3.00;2.10;;;;;;;-4.77;88.34;92538.13;2105714;28;20468;-78
2021/04/07 02:01:16;;;;;;;3.53;2.00;;;;;;;-4.81;86.91;92542.50;2097807;28;20526;-79
2021/04/07 02:02:17;;;;;;;2.77;2.43;;;;;;;-4.81;88.50;92535.44;2097465;28;20423;-79
2021/04/07 02:03:17;;;;;;;3.93;2.33;;;;;;;-4.73;88.14;92538.22;2105753;28;21146;-79
2021/04/07 02:04:18;;;;;;;2.80;2.27;;;;;;;-4.76;88.13;92531.81;2114028;28;20157;-78
2021/04/07 02:05:19;;;;;;;3.13;2.60;;;;;;;-4.77;88.42;92545.94;2113959;28;20015;-78
2021/04/07 02:06:20;;;;;;;3.63;2.80;;;;;;;-4.83;88.94;92537.63;2097425;28;20799;-78
2021/04/07 02:07:20;;;;;;;2.70;2.50;;;;;;;-4.72;89.53;92537.88;2089187;28;20502;-79
2021/04/07 02:08:21;;;;;;;2.97;2.17;;;;;;;-4.73;88.60;92540.84;2105646;28;20020;-78
2021/04/07 02:09:21;;;;;;;5.40;2.30;;;;;;;-4.75;88.71;92541.16;2114274;28;20118;-79
2021/04/07 02:10:22;;;;;;;3.25;2.20;;;;;;;-4.81;88.11;92537.28;2105556;28;20336;-78
2021/04/07 02:11:22;;;;;;;2.37;1.97;;;;;;;-4.79;88.24;92545.50;2097485;28;20580;-79
2021/04/07 02:12:23;;;;;;;2.63;2.33;;;;;;;-4.85;88.21;92539.78;2105828;28;20404;-80
2021/04/07 02:13:23;;;;;;;3.53;2.15;;;;;;;-4.77;88.96;92542.59;2097406;28;20062;-79
2021/04/07 02:14:25;;;;;;;4.07;2.50;;;;;;;-4.81;88.42;92534.69;2089088;28;20021;-79
2021/04/07 02:15:25;;;;;;;3.77;2.50;;;;;;;-4.84;87.92;92543.91;2089235;28;20025;-80
2021/04/07 02:16:26;;;;;;;4.77;2.13;;;;;;;-4.71;88.33;92533.44;2089252;28;20453;-80
2021/04/07 02:17:26;;;;;;;2.70;2.43;;;;;;;-4.73;88.66;92536.38;2097385;28;20115;-80
2021/04/07 02:18:27;;;;;;;2.50;2.23;;;;;;;-4.67;88.10;92537.63;2093476;28;20066;-79
2021/04/07 02:19:29;;;;;;;3.60;2.63;;;;;;;-4.65;88.58;92543.28;2105645;28;20028;-78
2021/04/07 02:20:29;;;;;;;2.95;2.13;;;;;;;-4.71;87.83;92542.00;2105642;28;20028;-79
2021/04/07 02:21:30;;;;;;;3.83;2.10;;;;;;;-4.62;88.92;92542.59;2097289;28;20442;-78
2021/04/07 02:22:30;;;;;;;3.83;2.60;;;;;;;-4.64;89.83;92550.00;2080648;28;20018;-80
2021/04/07 02:23:31;;;;;;;2.40;2.20;;;;;;;-4.70;89.63;92547.97;2089631;28;20128;-78
2021/04/07 02:24:32;;;;;;;3.30;2.27;;;;;;;-4.70;89.15;92543.50;2097400;28;20543;-79
2021/04/07 02:25:33;;;;;;;4.53;2.20;;;;;;;-4.70;89.32;92556.53;2089887;28;20434;-79
2021/04/07 02:26:33;;;;;;;3.93;2.30;;;;;;;-4.71;88.96;92549.06;2088926;28;20444;-79
2021/04/07 02:27:35;;;;;;;3.23;2.27;;;;;;;-4.72;89.04;92552.78;2089047;28;20424;-79
2021/04/07 02:28:36;;;;;;;3.23;2.30;;;;;;;-4.70;89.05;92553.94;2097397;28;20024;-80
2021/04/07 02:29:38;;;;;;;2.17;1.93;;;;;;;-4.63;88.22;92554.13;2088945;28;20888;-78
2021/04/07 02:30:38;;;;;;;4.03;2.33;;;;;;;-4.63;89.55;92559.34;2097363;28;20531;-79
2021/04/07 02:31:38;;;;;;;2.20;2.00;;;;;;;-4.71;89.22;92557.63;2097408;28;20431;-80
2021/04/07 02:32:39;;;;;;;3.20;2.17;;;;;;;-4.70;89.66;92561.00;2105761;28;20026;-79
2021/04/07 02:33:39;;;;;;;2.53;2.33;;;;;;;-4.61;89.30;92559.78;2103472;28;20066;-80
2021/04/07 02:34:42;;;;;;;2.13;1.47;;;;;;;-4.63;88.02;92564.56;2095158;28;20025;-78
2021/04/07 02:35:43;;;;;;;3.00;2.50;;;;;;;-4.64;88.57;92562.28;2107478;28;20035;-79
2021/04/07 02:36:43;;;;;;;2.77;2.57;;;;;;;-4.65;88.17;92561.53;2105789;28;21048;-78
2021/04/07 02:37:44;;;;;;;2.90;2.43;;;;;;;-4.68;89.21;92567.41;2105906;28;20023;-79
2021/04/07 02:38:44;;;;;;;2.47;2.27;;;;;;;-4.62;88.53;92570.53;2105480;28;20059;-80
2021/04/07 02:39:46;;;;;;;3.20;2.03;;;;;;;-4.67;90.21;92568.91;2097118;28;20021;-79
2021/04/07 02:40:46;;;;;;;2.40;2.20;;;;;;;-4.60;90.33;92561.28;2097487;28;20782;-78
2021/04/07 02:41:47;;;;;;;3.40;2.90;;;;;;;-4.76;89.61;92568.31;2097228;28;20443;-80
2021/04/07 02:42:47;;;;;;;4.23;3.13;;;;;;;-4.72;88.97;92566.56;2097262;28;20443;-78
2021/04/07 02:43:47;;;;;;;2.90;2.70;;;;;;;-4.74;90.17;92566.16;2105691;28;20020;-79
2021/04/07 02:44:48;;;;;;;4.27;2.90;;;;;;;-4.67;90.00;92578.59;2089506;28;20112;-78
2021/04/07 02:45:49;;;;;;;2.70;2.50;;;;;;;-4.67;89.15;92568.91;2097125;28;20385;-78
2021/04/07 02:46:49;;;;;;;2.70;2.50;;;;;;;-4.76;89.94;92567.56;2105690;28;20024;-80
2021/04/07 02:47:49;;;;;;;3.77;2.30;;;;;;;-4.71;89.75;92573.28;2114303;28;20032;-80
2021/04/07 02:48:50;;;;;;;2.50;2.30;;;;;;;-4.72;89.80;92577.00;2105564;28;20456;-78
2021/04/07 02:49:50;;;;;;;4.00;2.43;;;;;;;-4.77;89.81;92585.06;2097441;28;20107;-79
2021/04/07 02:50:51;;;;;;;3.13;2.60;;;;;;;-4.79;90.44;92582.00;2113880;28;20027;-80
2021/04/07 02:51:52;;;;;;;4.50;2.50;;;;;;;-4.78;90.18;92586.16;2105643;28;20034;-78
2021/04/07 02:52:52;;;;;;;4.50;2.30;;;;;;;-4.70;89.36;92576.66;2097250;28;20016;-79
2021/04/07 02:53:53;;;;;;;2.83;2.60;;;;;;;-4.71;89.19;92580.34;2088885;28;20021;-79
2021/04/07 02:54:53;;;;;;;2.67;2.47;;;;;;;-4.70;89.15;92576.66;2088809;28;20375;-79
2021/04/07 02:55:54;;;;;;;3.40;2.50;;;;;;;-4.64;89.87;92583.16;2088859;28;20512;-78
2021/04/07 02:56:55;;;;;;;2.90;2.30;;;;;;;-4.68;88.64;92590.13;2109729;28;20149;-78
2021/04/07 02:57:55;;;;;;;2.20;2.00;;;;;;;-4.70;88.53;92593.03;2097242;28;20025;-78
2021/04/07 02:58:57;;;;;;;3.07;2.57;;;;;;;-4.75;88.94;92595.91;2088853;28;20444;-78
2021/04/07 02:59:57;;;;;;;2.90;2.60;;;;;;;-4.78;89.31;92593.19;2102012;28;20116;-78
2021/04/07 03:00:58;;;;;;;3.70;2.83;;;;;;;-4.78;89.17;92593.97;2105470;28;20421;-78
2021/04/07 03:01:59;;;;;;;3.37;2.90;;;;;;;-4.78;90.49;92595.78;2105527;28;20016;-78
2021/04/07 03:03:00;;;;;;;3.97;2.77;;;;;;;-4.76;90.88;92593.63;2114013;28;20043;-76
2021/04/07 03:04:00;;;;;;;3.10;2.80;;;;;;;-4.75;90.31;92595.91;2105103;28;20478;-77
2021/04/07 03:05:01;;;;;;;4.00;3.00;;;;;;;-4.61;91.36;92591.06;2097113;28;20029;-79
2021/04/07 03:06:01;;;;;;;3.23;2.97;;;;;;;-4.63;90.95;92593.25;2093377;28;20127;-78
2021/04/07 03:07:02;;;;;;;3.10;2.80;;;;;;;-4.61;90.13;92603.31;2088876;28;20021;-78
2021/04/07 03:08:02;;;;;;;5.37;3.40;;;;;;;-4.73;88.33;92598.94;2087375;28;20049;-78
2021/04/07 03:09:03;;;;;;;4.23;3.50;;;;;;;-4.72;89.80;92595.25;2099132;28;20745;-78
2021/04/07 03:10:04;;;;;;;2.80;2.30;;;;;;;-4.72;88.76;92599.69;2115568;28;20118;-79
2021/04/07 03:11:04;;;;;;;3.80;2.97;;;;;;;-4.79;89.43;92596.88;2106946;28;20020;-80
2021/04/07 03:12:06;;;;;;;3.47;2.60;;;;;;;-4.74;89.14;92600.03;2107212;28;20028;-77
2021/04/07 03:13:06;;;;;;;3.57;3.00;;;;;;;-4.67;89.49;92602.81;2107055;28;20027;-78
2021/04/07 03:14:07;;;;;;;3.20;2.83;;;;;;;-4.68;89.85;92596.09;2098596;28;21108;-78
2021/04/07 03:15:09;;;;;;;3.00;2.70;;;;;;;-4.74;90.49;92610.47;2107144;28;20103;-79
2021/04/07 03:16:10;;;;;;;5.13;2.90;;;;;;;-4.68;90.47;92603.16;2115976;28;20084;-79
2021/04/07 03:17:11;;;;;;;3.17;2.77;;;;;;;-4.69;89.70;92602.41;2115479;28;20449;-79
2021/04/07 03:18:12;;;;;;;3.20;2.73;;;;;;;-4.74;90.39;92610.47;2098721;28;20020;-78
2021/04/07 03:19:12;;;;;;;3.90;2.60;;;;;;;-4.71;90.82;92614.25;2090168;28;20432;-79
2021/04/07 03:20:12;;;;;;;3.00;2.70;;;;;;;-4.71;90.55;92615.00;2098473;28;20021;-79
2021/04/07 03:21:13;;;;;;;2.33;1.90;;;;;;;-4.61;89.64;92624.19;2106853;28;20024;-79
2021/04/07 03:22:13;;;;;;;4.23;2.40;;;;;;;-4.68;89.30;92616.19;2107193;28;20024;-78
2021/04/07 03:23:14;;;;;;;2.90;2.50;;;;;;;-4.67;90.34;92620.31;2115569;28;20100;-79
2021/04/07 03:24:14;;;;;;;4.00;2.80;;;;;;;-4.67;89.13;92618.47;2106708;28;20024;-79
2021/04/07 03:25:15;;;;;;;3.70;2.13;;;;;;;-4.67;89.18;92615.09;2098361;28;20013;-79
2021/04/07 03:26:15;;;;;;;3.33;2.37;;;;;;;-4.85;89.22;92610.16;2090164;28;20025;-80
2021/04/07 03:27:15;;;;;;;3.00;2.70;;;;;;;-4.78;90.01;92614.03;2090198;28;20029;-77
2021/04/07 03:28:16;;;;;;;2.87;2.53;;;;;;;-4.75;89.65;92614.13;2090284;28;20032;-78
2021/04/07 03:29:16;;;;;;;2.70;2.50;;;;;;;-4.74;89.44;92614.91;2089670;28;20032;-78
2021/04/07 03:30:17;;;;;;;3.57;2.60;;;;;;;-4.68;88.61;92622.16;2089597;28;20845;-78
2021/04/07 03:31:18;;;;;;;3.33;2.53;;;;;;;-4.77;88.39;92624.16;2098339;28;20024;-79
2021/04/07 03:32:20;;;;;;;3.27;2.97;;;;;;;-4.87;89.61;92619.41;2098485;28;20028;-79
2021/04/07 03:33:23;;;;;;;1.57;1.47;;;;;;;-4.81;89.18;92620.69;2090629;28;20025;-78
2021/04/07 03:34:23;;;;;;;3.20;2.87;;;;;;;-4.82;89.58;92617.31;2107250;28;20434;-79
2021/04/07 03:35:24;;;;;;;3.00;2.30;;;;;;;-4.87;88.30;92628.00;2115303;28;20489;-78
2021/04/07 03:36:24;;;;;;;4.20;2.90;;;;;;;-4.85;89.00;92628.41;2106361;28;20146;-78
2021/04/07 03:37:25;;;;;;;3.27;3.00;;;;;;;-4.91;89.38;92623.78;2098651;28;20074;-79
2021/04/07 03:38:25;;;;;;;3.53;3.23;;;;;;;-4.98;90.04;92619.13;2107144;28;20095;-78
2021/04/07 03:39:26;;;;;;;3.97;3.57;;;;;;;-4.90;91.13;92620.06;2115083;28;20112;-78
2021/04/07 03:40:26;;;;;;;2.40;2.27;;;;;;;-4.90;90.47;92635.72;2106883;28;20020;-79
2021/04/07 03:41:27;;;;;;;3.53;2.80;;;;;;;-4.94;90.24;92627.03;2106673;28;20016;-78
2021/04/07 03:42:27;;;;;;;2.93;2.73;;;;;;;-4.99;90.53;92628.03;2098442;28;20031;-79
2021/04/07 03:43:28;;;;;;;3.13;2.60;;;;;;;-4.91;90.41;92629.75;2106940;28;20404;-79
2021/04/07 03:44:28;;;;;;;3.23;2.90;;;;;;;-4.92;89.68;92633.41;2115383;28;20065;-79
2021/04/07 03:45:29;;;;;;;3.70;2.70;;;;;;;-4.89;89.82;92634.63;2106766;28;20111;-77
2021/04/07 03:46:29;;;;;;;3.03;2.83;;;;;;;-4.90;90.03;92630.50;2098464;28;20028;-78
2021/04/07 03:47:30;;;;;;;3.10;2.00;;;;;;;-4.87;90.67;92632.44;2106707;28;20050;-79
2021/04/07 03:48:31;;;;;;;3.17;2.40;;;;;;;-4.87;89.82;92635.06;2115317;28;20103;-78
2021/04/07 03:49:32;;;;;;;5.20;2.70;;;;;;;-4.83;89.78;92638.50;2115308;28;20028;-80
2021/04/07 03:50:32;;;;;;;3.13;2.77;;;;;;;-4.89;90.46;92639.81;2106710;28;20476;-78
2021/04/07 03:51:33;;;;;;;4.20;2.70;;;;;;;-4.83;90.61;92643.72;2098404;28;20497;-79
2021/04/07 03:52:33;;;;;;;2.57;2.37;;;;;;;-4.86;90.82;92647.75;2098396;28;20024;-78
2021/04/07 03:53:33;;;;;;;2.93;2.50;;;;;;;-4.87;90.82;92643.63;2106765;28;20024;-79
2021/04/07 03:54:35;;;;;;;3.20;2.90;;;;;;;-4.93;91.83;92652.00;2106625;28;20026;-79
2021/04/07 03:55:37;;;;;;;2.90;2.40;;;;;;;-4.83;91.10;92656.75;2106809;28;20465;-79
2021/04/07 03:56:38;;;;;;;2.90;2.60;;;;;;;-4.86;89.93;92650.34;2106686;28;20422;-79
2021/04/07 03:57:38;;;;;;;3.20;2.13;;;;;;;-4.88;89.75;92654.38;2104175;28;20527;-79
2021/04/07 03:58:39;;;;;;;3.00;2.70;;;;;;;-4.89;90.19;92652.84;2092491;28;20021;-78
2021/04/07 03:59:39;;;;;;;3.23;2.60;;;;;;;-4.90;89.81;92656.56;2098399;28;20032;-79
2021/04/07 04:00:40;;;;;;;3.33;3.03;;;;;;;-4.94;90.35;92663.50;2098260;28;20047;-79
2021/04/07 04:01:40;;;;;;;2.80;2.60;;;;;;;-4.86;91.02;92657.41;2090149;28;20031;-79
2021/04/07 04:02:41;;;;;;;3.27;2.43;;;;;;;-4.90;91.01;92661.78;2108740;28;20038;-79
2021/04/07 04:03:41;;;;;;;2.20;1.97;;;;;;;-4.93;90.98;92659.81;2114902;28;20453;-78
2021/04/07 04:04:42;;;;;;;3.20;2.90;;;;;;;-4.92;90.77;92663.94;2106592;28;20024;-78
2021/04/07 04:05:43;;;;;;;2.70;2.50;;;;;;;-4.89;91.40;92656.22;2098237;28;20051;-79
2021/04/07 04:06:45;;;;;;;7.20;3.03;;;;;;;-4.88;90.65;92659.59;2106674;28;20032;-79
2021/04/07 04:07:46;;;;;;;3.10;2.70;;;;;;;-4.90;90.30;92672.94;2098403;28;20477;-79
2021/04/07 04:08:46;;;;;;;3.40;3.03;;;;;;;-4.91;90.83;92661.00;2097940;28;20435;-79
2021/04/07 04:09:47;;;;;;;3.97;2.97;;;;;;;-4.95;91.09;92667.97;2104058;28;20024;-78
2021/04/07 04:10:47;;;;;;;5.83;2.80;;;;;;;-4.92;90.59;92664.69;2098209;28;20536;-82
2021/04/07 04:11:47;;;;;;;3.73;3.03;;;;;;;-4.96;91.33;92666.47;2106549;28;20615;-80
2021/04/07 04:12:48;;;;;;;3.60;3.17;;;;;;;-4.97;91.21;92658.97;2115182;28;20027;-81
2021/04/07 04:13:48;;;;;;;2.17;1.97;;;;;;;-4.96;90.63;92681.31;2098290;28;20134;-78
2021/04/07 04:14:49;;;;;;;3.80;3.20;;;;;;;-5.00;90.72;92670.03;2098309;28;20029;-78
2021/04/07 04:15:49;;;;;;;4.10;3.40;;;;;;;-4.90;90.76;92672.94;2106412;28;20035;-79
2021/04/07 04:16:49;;;;;;;3.50;3.20;;;;;;;-4.85;90.14;92672.72;2098037;28;20028;-80
2021/04/07 04:17:50;;;;;;;3.27;3.00;;;;;;;-4.96;90.74;92679.50;2098214;28;20462;-80
2021/04/07 04:18:51;;;;;;;5.37;3.27;;;;;;;-4.92;91.29;92680.31;2097960;28;20091;-79
2021/04/07 04:19:51;;;;;;;4.13;3.23;;;;;;;-4.92;90.22;92687.38;2098054;28;20020;-78
2021/04/07 04:20:51;;;;;;;4.50;3.20;;;;;;;-4.95;90.87;92693.28;2098211;28;20055;-79
2021/04/07 04:21:53;;;;;;;3.93;3.40;;;;;;;-4.95;91.12;92688.81;2097993;28;20028;-79
2021/04/07 04:22:53;;;;;;;4.83;3.20;;;;;;;-4.88;90.88;92690.84;2089968;28;20100;-80
2021/04/07 04:23:53;;;;;;;6.03;3.53;;;;;;;-4.92;89.65;92682.94;2089936;28;20435;-79
2021/04/07 04:24:54;;;;;;;4.07;3.20;;;;;;;-4.89;90.10;92689.34;2098030;28;20087;-78
2021/04/07 04:25:54;;;;;;;3.13;2.80;;;;;;;-4.96;89.44;92699.56;2110371;28;20046;-80
2021/04/07 04:26:55;;;;;;;5.07;2.97;;;;;;;-4.95;89.71;92701.84;2106188;28;20027;-79
2021/04/07 04:27:55;;;;;;;3.17;2.80;;;;;;;-5.00;89.84;92704.69;2098163;28;20086;-78
2021/04/07 04:28:55;;;;;;;4.93;2.80;;;;;;;-4.98;90.09;92701.75;2098201;28;20028;-77
2021/04/07 04:29:56;;;;;;;6.70;3.70;;;;;;;-5.06;91.16;92711.19;2098202;28;20055;-78
2021/04/07 04:30:56;;;;;;;4.27;3.90;;;;;;;-5.04;91.32;92710.88;2100711;28;20035;-78
2021/04/07 04:31:57;;;;;;;3.93;3.60;;;;;;;-5.00;91.15;92715.13;2089746;28;20029;-79
2021/04/07 04:32:58;;;;;;;3.40;3.07;;;;;;;-4.97;89.72;92713.69;2089601;28;20071;-78
2021/04/07 04:33:59;;;;;;;4.67;3.27;;;;;;;-4.98;90.83;92714.78;2098083;28;20426;-79
2021/04/07 04:34:59;;;;;;;4.00;3.60;;;;;;;-4.99;90.85;92711.41;2097832;28;20470;-78
2021/04/07 04:36:00;;;;;;;6.07;3.80;;;;;;;-4.96;90.98;92713.38;2089407;28;20051;-80
2021/04/07 04:37:00;;;;;;;4.43;4.03;;;;;;;-4.98;91.41;92709.56;2097752;28;20028;-80
2021/04/07 04:38:01;;;;;;;5.90;3.93;;;;;;;-4.93;91.61;92709.34;2096691;28;20561;-79
2021/04/07 04:39:01;;;;;;;3.70;3.27;;;;;;;-4.98;90.23;92723.34;2097314;28;20024;-79
2021/04/07 04:40:03;;;;;;;4.97;3.17;;;;;;;-5.01;90.24;92720.63;2097594;28;20020;-78
2021/04/07 04:41:03;;;;;;;4.70;3.70;;;;;;;-5.00;91.79;92720.31;2097235;28;20032;-80
2021/04/07 04:42:04;;;;;;;4.20;3.80;;;;;;;-4.94;92.02;92723.47;2093685;28;21058;-80
2021/04/07 04:43:05;;;;;;;5.67;4.07;;;;;;;-4.91;91.83;92717.59;2097385;28;20155;-79
2021/04/07 04:44:06;;;;;;;3.00;2.47;;;;;;;-4.94;89.63;92732.03;2097585;28;20035;-79
2021/04/07 04:45:07;;;;;;;3.97;2.90;;;;;;;-4.91;90.23;92730.63;2105722;28;20027;-80
2021/04/07 04:46:07;;;;;;;4.77;3.57;;;;;;;-5.04;90.59;92729.13;2089002;28;20568;-80
2021/04/07 04:47:08;;;;;;;5.07;3.63;;;;;;;-4.99;91.43;92736.72;2093169;28;20447;-79